Time;durP1;ratioP1;P1;durP2;ratioP2;P2;SDS_P1;SDS_P2;PMS_P1;PMS_P2;Temp;Humidity;BMP_temperature;BMP_pressure;BME280_temperature;BME280_humidity;BME280_pressure;Samples;Min_cycle;Max_cycle;Signal;HPM_P1;HPM_P2
2022/04/02 00:00:41;;;;;;;4.80;3.60;;;;;;;-0.27;100.00;99288.34;4989574;28;20240;-62
2022/04/02 00:03:06;;;;;;;5.43;4.70;;;;;;;-0.21;100.00;99288.19;5004582;28;20702;-62
2022/04/02 00:05:32;;;;;;;5.57;4.33;;;;;;;-0.02;100.00;99284.38;4993971;28;20191;-62
2022/04/02 00:07:57;;;;;;;4.67;4.17;;;;;;;-0.10;100.00;99278.69;5008403;28;20193;-62
2022/04/02 00:10:22;;;;;;;6.20;4.50;;;;;;;-0.12;100.00;99280.41;4985193;28;20230;-63
2022/04/02 00:12:48;;;;;;;4.53;3.90;;;;;;;-0.24;100.00;99270.59;5006403;28;20215;-62
2022/04/02 00:15:13;;;;;;;4.83;4.37;;;;;;;-0.21;100.00;99267.97;4991836;28;20209;-62
2022/04/02 00:17:38;;;;;;;6.87;4.73;;;;;;;-0.09;100.00;99271.94;4992137;28;20651;-61
2022/04/02 00:20:04;;;;;;;5.50;4.83;;;;;;;-0.11;100.00;99276.19;4977928;28;20240;-61
2022/04/02 00:22:31;;;;;;;6.80;4.43;;;;;;;-0.09;100.00;99282.03;4991772;28;20211;-61
2022/04/02 00:24:56;;;;;;;7.07;5.13;;;;;;;-0.13;100.00;99277.94;4993500;28;20185;-61
2022/04/02 00:27:22;;;;;;;7.47;5.20;;;;;;;-0.18;100.00;99278.84;4994056;28;20675;-61
2022/04/02 00:29:47;;;;;;;7.87;5.00;;;;;;;-0.16;100.00;99273.78;4993735;28;20210;-63
2022/04/02 00:32:12;;;;;;;7.40;4.67;;;;;;;-0.21;100.00;99270.50;4982217;28;20692;-62
2022/04/02 00:34:38;;;;;;;4.50;4.07;;;;;;;-0.18;100.00;99270.44;4993101;28;20177;-63
2022/04/02 00:37:04;;;;;;;7.47;5.53;;;;;;;-0.16;100.00;99266.19;4993987;28;20274;-60
2022/04/02 00:39:30;;;;;;;4.83;3.97;;;;;;;-0.22;100.00;99271.41;4992276;28;20193;-61
2022/04/02 00:41:55;;;;;;;3.97;3.50;;;;;;;-0.18;100.00;99263.69;4984391;28;20223;-61
2022/04/02 00:44:21;;;;;;;6.83;4.27;;;;;;;-0.14;100.00;99268.69;4993246;28;20185;-61
2022/04/02 00:46:47;;;;;;;4.87;3.93;;;;;;;-0.19;100.00;99272.16;4993331;28;20225;-61
2022/04/02 00:49:14;;;;;;;7.67;4.27;;;;;;;-0.19;100.00;99272.16;4993393;28;20196;-61
2022/04/02 00:51:41;;;;;;;6.63;4.53;;;;;;;-0.19;100.00;99268.78;4971768;28;20688;-61
2022/04/02 00:54:15;;;;;;;6.97;4.40;;;;;;;-0.15;100.00;99267.00;4988632;28;20180;-61
2022/04/02 00:56:42;;;;;;;4.93;3.63;;;;;;;-0.13;100.00;99266.09;4992051;28;20177;-60
2022/04/02 00:59:08;;;;;;;5.83;4.30;;;;;;;-0.18;100.00;99270.44;4993126;28;20873;-63
2022/04/02 01:01:35;;;;;;;4.37;3.77;;;;;;;-0.20;100.00;99267.97;4989173;28;20952;-62
2022/04/02 01:04:01;;;;;;;5.73;3.50;;;;;;;-0.22;100.00;99272.22;4953369;28;1150234;-62
2022/04/02 01:06:27;;;;;;;4.63;3.83;;;;;;;-0.24;100.00;99276.47;4994335;28;20192;-62
2022/04/02 01:08:53;;;;;;;4.23;3.83;;;;;;;-0.25;100.00;99273.97;4994461;28;20959;-62
2022/04/02 01:11:18;;;;;;;5.20;4.57;;;;;;;-0.25;100.00;99282.41;4993317;28;20232;-60
2022/04/02 01:13:44;;;;;;;9.03;5.30;;;;;;;-0.27;100.00;99278.22;4999055;28;20189;-60
2022/04/02 01:16:09;;;;;;;8.23;6.77;;;;;;;-0.31;100.00;99274.97;4992253;28;20183;-62
2022/04/02 01:18:35;;;;;;;9.17;6.10;;;;;;;-0.29;100.00;99277.47;4993733;28;20185;-62
2022/04/02 01:21:00;;;;;;;7.37;6.10;;;;;;;-0.30;100.00;99280.84;4985482;28;20231;-62
2022/04/02 01:23:29;;;;;;;8.87;6.60;;;;;;;-0.30;100.00;99283.38;4991945;28;20671;-65
2022/04/02 01:25:56;;;;;;;7.43;6.17;;;;;;;-0.31;100.00;99281.72;4993805;28;20231;-61
2022/04/02 01:28:22;;;;;;;9.10;6.63;;;;;;;-0.31;100.00;99285.09;4992494;28;20670;-61
2022/04/02 01:30:47;;;;;;;11.83;6.33;;;;;;;-0.24;100.00;99291.63;4983047;28;20496;-62
2022/04/02 01:33:13;;;;;;;9.10;6.33;;;;;;;-0.32;100.00;99291.00;4982076;28;20272;-61
2022/04/02 01:35:38;;;;;;;9.33;7.27;;;;;;;-0.35;100.00;99301.16;4993619;28;20255;-63
2022/04/02 01:38:03;;;;;;;11.37;7.30;;;;;;;-0.39;100.00;99297.88;4993069;28;20264;-62
2022/04/02 01:40:29;;;;;;;8.50;6.77;;;;;;;-0.45;100.00;99297.19;4984011;28;20578;-62
2022/04/02 01:42:54;;;;;;;10.00;6.70;;;;;;;-0.47;100.00;99302.28;5005220;28;20598;-62
2022/04/02 01:45:19;;;;;;;13.23;7.93;;;;;;;-0.44;100.00;99298.84;4978818;28;20277;-61
2022/04/02 01:47:45;;;;;;;12.43;6.67;;;;;;;-0.48;100.00;99298.09;4972627;28;20574;-61
2022/04/02 01:50:13;;;;;;;9.63;5.03;;;;;;;-0.49;100.00;99304.81;4963908;28;20174;-61
2022/04/02 01:52:38;;;;;;;9.50;6.10;;;;;;;-0.47;100.00;99302.28;4945628;28;20210;-61
2022/04/02 01:55:05;;;;;;;9.57;6.03;;;;;;;-0.45;100.00;99299.72;4953367;28;20429;-61
2022/04/02 01:57:30;;;;;;;7.17;5.93;;;;;;;-0.45;100.00;99303.06;4972552;28;20202;-62
2022/04/02 01:59:55;;;;;;;8.53;6.63;;;;;;;-0.45;100.00;99304.78;4972589;28;20954;-62
2022/04/02 02:02:20;;;;;;;10.93;6.53;;;;;;;-0.45;100.00;99300.53;4965345;28;20368;-62
2022/04/02 02:04:46;;;;;;;10.93;7.47;;;;;;;-0.40;100.00;99300.44;4992080;28;20177;-66
2022/04/02 02:07:11;;;;;;;8.80;6.37;;;;;;;-0.46;100.00;99305.63;4993289;28;20199;-62
2022/04/02 02:09:37;;;;;;;10.83;7.97;;;;;;;-0.34;100.00;99302.81;4991988;28;20277;-62
2022/04/02 02:12:03;;;;;;;9.33;7.23;;;;;;;-0.35;100.00;99306.22;4981867;28;20685;-61
2022/04/02 02:14:29;;;;;;;8.33;6.57;;;;;;;-0.38;100.00;99308.81;4991689;28;20260;-62
2022/04/02 02:16:56;;;;;;;18.43;8.60;;;;;;;-0.34;100.00;99307.88;4991524;28;20459;-61
2022/04/02 02:19:21;;;;;;;8.37;7.27;;;;;;;-0.29;100.00;99305.25;4991897;28;20176;-62
2022/04/02 02:21:47;;;;;;;6.13;5.37;;;;;;;-0.26;100.00;99307.69;4981743;28;20707;-62
2022/04/02 02:24:12;;;;;;;6.23;5.30;;;;;;;-0.27;100.00;99311.94;4991933;28;20178;-61
2022/04/02 02:26:37;;;;;;;4.67;4.27;;;;;;;-0.27;100.00;99313.63;4993107;28;20184;-62
2022/04/02 02:29:06;;;;;;;4.07;3.63;;;;;;;-0.27;100.00;99309.41;4992642;28;20187;-61
2022/04/02 02:31:36;;;;;;;5.07;4.30;;;;;;;-0.28;100.00;99314.50;4984280;28;20244;-64
2022/04/02 02:36:47;;;;;;;5.33;3.67;;;;;;;-0.26;100.00;99315.28;4991581;28;20224;-62
2022/04/02 02:39:12;;;;;;;5.20;3.53;;;;;;;-0.24;100.00;99309.31;4991160;28;20266;-62
2022/04/02 02:41:37;;;;;;;5.07;4.47;;;;;;;-0.26;100.00;99318.66;4990274;28;20302;-62
2022/04/02 02:44:03;;;;;;;3.77;3.47;;;;;;;-0.34;100.00;99312.94;4975041;28;20188;-62
2022/04/02 02:46:29;;;;;;;6.27;4.10;;;;;;;-0.30;100.00;99333.91;4971862;28;20207;-62
2022/04/02 02:48:55;;;;;;;4.13;3.00;;;;;;;-0.39;100.00;99337.47;4971727;28;20186;-59
2022/04/02 02:51:20;;;;;;;3.37;3.07;;;;;;;-0.46;100.00;99329.19;4964847;28;20851;-62
2022/04/02 02:53:46;;;;;;;3.93;2.77;;;;;;;-0.45;100.00;99330.84;4991294;28;20177;-62
2022/04/02 02:56:11;;;;;;;3.90;2.90;;;;;;;-0.45;100.00;99333.38;4992011;28;20187;-62
2022/04/02 02:58:36;;;;;;;3.67;3.10;;;;;;;-0.46;100.00;99329.19;4992125;28;20212;-62
2022/04/02 03:01:02;;;;;;;5.70;3.53;;;;;;;-0.49;100.00;99330.09;4972064;28;20240;-59
2022/04/02 03:03:27;;;;;;;4.40;2.90;;;;;;;-0.59;100.00;99333.69;4981907;28;20233;-61
2022/04/02 03:05:53;;;;;;;3.40;3.10;;;;;;;-0.56;100.00;99342.88;4990744;28;20172;-63
2022/04/02 03:08:18;;;;;;;5.20;3.70;;;;;;;-0.57;100.00;99343.75;4992244;28;20176;-60
2022/04/02 03:10:46;;;;;;;4.13;3.10;;;;;;;-0.54;100.00;99344.53;4987187;28;20234;-60
2022/04/02 03:13:11;;;;;;;4.63;3.93;;;;;;;-0.55;100.00;99349.63;5006618;28;20280;-62
2022/04/02 03:15:37;;;;;;;4.30;3.90;;;;;;;-0.58;100.00;99342.09;4986249;28;20668;-62
2022/04/02 03:18:05;;;;;;;6.33;4.47;;;;;;;-0.60;100.00;99348.88;4990720;28;20184;-62
2022/04/02 03:20:30;;;;;;;5.10;3.83;;;;;;;-0.59;100.00;99348.03;4983778;28;20255;-61
2022/04/02 03:22:56;;;;;;;5.13;4.13;;;;;;;-0.60;100.00;99357.28;4995880;28;21232;-61
2022/04/02 03:25:21;;;;;;;6.93;3.70;;;;;;;-0.60;100.00;99349.69;4972499;28;20180;-60
2022/04/02 03:27:47;;;;;;;4.37;3.87;;;;;;;-0.63;100.00;99357.34;4972381;28;20633;-60
2022/04/02 03:30:18;;;;;;;4.63;4.10;;;;;;;-0.54;100.00;99356.34;4939973;28;20176;-61
2022/04/02 03:32:46;;;;;;;4.77;3.17;;;;;;;-0.61;100.00;99362.38;4943831;28;20294;-61
2022/04/02 03:35:15;;;;;;;6.40;5.13;;;;;;;-0.65;100.00;99374.22;4989821;28;20180;-61
2022/04/02 03:37:45;;;;;;;6.67;5.60;;;;;;;-0.71;100.00;99375.19;4991826;28;20558;-61
2022/04/02 03:40:17;;;;;;;9.43;5.80;;;;;;;-0.74;100.00;99382.00;4969408;28;20417;-62
2022/04/02 03:42:46;;;;;;;11.03;6.60;;;;;;;-0.72;100.00;99381.09;4957400;28;20417;-60
2022/04/02 03:45:18;;;;;;;9.90;5.70;;;;;;;-0.72;100.00;99373.53;4955054;28;20425;-62
2022/04/02 03:47:44;;;;;;;5.13;3.77;;;;;;;-0.71;100.00;99377.72;4971123;28;20439;-60
2022/04/02 03:50:10;;;;;;;5.03;4.13;;;;;;;-0.74;100.00;99375.25;4960871;28;20440;-62
2022/04/02 03:52:36;;;;;;;4.50;3.67;;;;;;;-0.71;100.00;99379.41;4989999;28;20478;-62
2022/04/02 03:55:04;;;;;;;4.13;3.73;;;;;;;-0.69;100.00;99385.25;4991957;28;20234;-61
2022/04/02 03:57:29;;;;;;;5.83;4.03;;;;;;;-0.70;100.00;99386.13;4995307;28;20911;-61
2022/04/02 03:59:55;;;;;;;3.07;2.83;;;;;;;-0.70;100.00;99386.94;4995222;28;20403;-61
2022/04/02 04:02:21;;;;;;;4.30;3.90;;;;;;;-0.70;100.00;99389.47;4984853;28;20714;-61
2022/04/02 04:04:46;;;;;;;3.63;3.30;;;;;;;-0.74;100.00;99387.88;4993438;28;20223;-61
2022/04/02 04:07:12;;;;;;;6.17;3.73;;;;;;;-0.76;100.00;99393.81;4995130;28;20494;-62
2022/04/02 04:09:37;;;;;;;5.83;4.13;;;;;;;-0.73;100.00;99399.66;4993919;28;20267;-61
2022/04/02 04:12:03;;;;;;;7.10;4.00;;;;;;;-0.80;100.00;99395.56;4986441;28;20305;-61
2022/04/02 04:14:29;;;;;;;5.23;3.47;;;;;;;-0.80;100.00;99403.16;4993283;28;20192;-61
2022/04/02 04:16:54;;;;;;;3.37;3.00;;;;;;;-0.76;100.00;99403.91;4993384;28;20432;-60
2022/04/02 04:19:21;;;;;;;3.60;3.30;;;;;;;-0.75;100.00;99408.94;4995070;28;20187;-60
2022/04/02 04:21:47;;;;;;;4.77;3.50;;;;;;;-0.83;100.00;99413.31;4986320;28;20606;-61
2022/04/02 04:24:15;;;;;;;4.83;3.40;;;;;;;-0.82;100.00;99412.44;4975457;28;20422;-61
2022/04/02 04:26:43;;;;;;;3.80;3.50;;;;;;;-0.82;100.00;99425.91;4974101;28;20422;-61
2022/04/02 04:29:09;;;;;;;4.70;3.60;;;;;;;-0.75;100.00;99433.38;4975276;28;20426;-61
2022/04/02 04:31:35;;;;;;;6.53;3.70;;;;;;;-0.83;100.00;99425.94;4967679;28;20609;-62
2022/04/02 04:34:01;;;;;;;3.77;3.47;;;;;;;-0.84;100.00;99434.38;4980337;28;20188;-60
2022/04/02 04:36:27;;;;;;;3.40;3.13;;;;;;;-0.94;100.00;99432.84;4974672;28;20185;-60
2022/04/02 04:38:52;;;;;;;2.90;2.67;;;;;;;-1.00;100.00;99441.41;4993161;28;20178;-60
2022/04/02 04:41:18;;;;;;;6.93;4.20;;;;;;;-0.94;100.00;99433.72;4976069;28;20471;-61
2022/04/02 04:43:49;;;;;;;4.00;3.60;;;;;;;-0.97;100.00;99443.84;4993424;28;20651;-61
2022/04/02 04:46:16;;;;;;;5.03;3.40;;;;;;;-1.01;100.00;99445.59;4993128;28;20419;-61
2022/04/02 04:48:42;;;;;;;4.77;3.47;;;;;;;-0.97;100.00;99448.91;4991331;28;20410;-60
2022/04/02 04:51:08;;;;;;;4.50;3.60;;;;;;;-0.96;100.00;99447.22;4972810;28;20490;-61
2022/04/02 04:53:34;;;;;;;4.43;3.40;;;;;;;-1.03;100.00;99447.34;4985449;28;20180;-61
2022/04/02 04:55:59;;;;;;;5.20;4.70;;;;;;;-1.06;100.00;99456.66;4992754;28;20918;-61
2022/04/02 04:58:25;;;;;;;7.23;3.53;;;;;;;-1.06;100.00;99466.75;4994256;28;20178;-61
2022/04/02 05:00:50;;;;;;;4.00;3.60;;;;;;;-1.13;100.00;99460.94;4979447;28;20674;-61
2022/04/02 05:03:15;;;;;;;5.00;4.30;;;;;;;-1.15;100.00;99457.63;4992979;28;20224;-61
2022/04/02 05:05:41;;;;;;;4.37;3.97;;;;;;;-1.18;100.00;99460.19;4991685;28;20176;-62
2022/04/02 05:08:07;;;;;;;4.73;4.33;;;;;;;-1.14;100.00;99462.66;4992298;28;20188;-60
2022/04/02 05:10:33;;;;;;;4.37;3.80;;;;;;;-1.16;100.00;99466.88;4983787;28;20280;-63
2022/04/02 05:12:59;;;;;;;6.63;4.70;;;;;;;-1.14;100.00;99477.78;4980211;28;20390;-60
2022/04/02 05:15:24;;;;;;;5.53;4.20;;;;;;;-1.17;100.00;99471.97;4992600;28;20514;-60
2022/04/02 05:17:49;;;;;;;4.93;3.90;;;;;;;-1.15;100.00;99486.22;4993635;28;20627;-63
2022/04/02 05:20:17;;;;;;;6.67;4.07;;;;;;;-1.12;100.00;99480.28;4982204;28;20187;-61
2022/04/02 05:22:44;;;;;;;5.43;3.90;;;;;;;-1.16;100.00;99479.50;4959186;28;20223;-60
2022/04/02 05:25:10;;;;;;;7.77;3.97;;;;;;;-1.19;100.00;99481.25;4989660;28;20447;-62
2022/04/02 05:27:36;;;;;;;7.27;3.77;;;;;;;-1.18;100.00;99493.00;4992312;28;20419;-61
2022/04/02 05:30:02;;;;;;;5.67;3.07;;;;;;;-1.23;100.00;99487.19;4994521;28;20817;-62
2022/04/02 05:32:28;;;;;;;6.23;4.20;;;;;;;-1.13;100.00;99491.25;5000415;28;20285;-61
2022/04/02 05:34:54;;;;;;;4.20;3.80;;;;;;;-1.12;100.00;99487.84;5008997;28;20505;-61
2022/04/02 05:37:20;;;;;;;9.00;3.83;;;;;;;-1.07;100.00;99495.38;5004979;28;20202;-60
2022/04/02 05:39:46;;;;;;;5.27;4.20;;;;;;;-1.10;100.00;99498.78;5002271;28;20509;-60
2022/04/02 05:42:12;;;;;;;5.43;3.93;;;;;;;-1.14;100.00;99499.69;4998831;28;20253;-60
2022/04/02 05:44:39;;;;;;;7.60;4.13;;;;;;;-1.17;100.00;99500.53;4992734;28;20236;-61
2022/04/02 05:47:05;;;;;;;5.83;5.17;;;;;;;-1.10;100.00;99510.53;4983745;28;20528;-61
2022/04/02 05:49:31;;;;;;;9.20;6.20;;;;;;;-1.16;100.00;99508.97;4972349;28;20877;-60
2022/04/02 05:51:57;;;;;;;8.27;6.10;;;;;;;-1.19;100.00;99525.00;4979112;28;20231;-60
2022/04/02 05:54:23;;;;;;;8.03;6.47;;;;;;;-1.20;100.00;99525.84;4975061;28;20184;-60
2022/04/02 05:56:48;;;;;;;11.00;7.00;;;;;;;-1.19;100.00;99514.91;4974006;28;20176;-60
2022/04/02 05:59:14;;;;;;;6.50;5.90;;;;;;;-1.19;100.00;99517.44;4973730;28;20177;-59
2022/04/02 06:01:39;;;;;;;7.40;6.43;;;;;;;-1.18;100.00;99529.19;4989266;28;20227;-62
2022/04/02 06:04:04;;;;;;;8.47;6.67;;;;;;;-1.18;100.00;99535.91;4978432;28;20580;-60
2022/04/02 06:06:33;;;;;;;9.63;7.90;;;;;;;-1.15;100.00;99539.22;4973692;28;20180;-60
2022/04/02 06:08:58;;;;;;;9.33;6.67;;;;;;;-1.02;100.00;99542.41;4973506;28;20222;-60
2022/04/02 06:11:24;;;;;;;5.87;5.33;;;;;;;-1.02;100.00;99539.88;4976233;28;20483;-61
2022/04/02 06:13:49;;;;;;;5.50;5.00;;;;;;;-1.10;100.00;99538.31;4982573;28;20177;-62
2022/04/02 06:16:16;;;;;;;10.27;4.50;;;;;;;-1.14;100.00;99552.69;4973363;28;20584;-61
2022/04/02 06:18:42;;;;;;;4.07;3.77;;;;;;;-1.21;100.00;99571.31;4971887;28;20313;-60
2022/04/02 06:21:07;;;;;;;7.47;4.57;;;;;;;-1.22;100.00;99569.63;4980384;28;20967;-59
2022/04/02 06:23:33;;;;;;;6.13;4.17;;;;;;;-1.16;100.00;99561.97;4999272;28;20307;-60
2022/04/02 06:25:59;;;;;;;4.77;4.27;;;;;;;-1.14;100.00;99567.84;4991537;28;20176;-60
2022/04/02 06:28:24;;;;;;;5.83;4.17;;;;;;;-1.12;100.00;99575.38;5006344;28;20180;-60
2022/04/02 06:30:49;;;;;;;3.70;3.13;;;;;;;-1.13;100.00;99579.59;4983937;28;20482;-60
2022/04/02 06:33:15;;;;;;;5.83;4.30;;;;;;;-1.13;100.00;99589.69;4976695;28;20184;-61
2022/04/02 06:35:40;;;;;;;4.67;4.20;;;;;;;-1.10;100.00;99587.13;4971632;28;20267;-60
2022/04/02 06:38:06;;;;;;;4.00;3.67;;;;;;;-1.12;100.00;99582.97;4971582;28;20180;-61
2022/04/02 06:40:31;;;;;;;6.67;4.20;;;;;;;-1.09;100.00;99581.22;4967028;28;20278;-61
2022/04/02 06:42:57;;;;;;;5.53;3.73;;;;;;;-1.06;100.00;99585.38;4983914;28;20181;-62
2022/04/02 06:45:25;;;;;;;5.33;4.27;;;;;;;-1.00;100.00;99591.16;4987738;28;20180;-63
2022/04/02 06:47:50;;;;;;;5.87;3.97;;;;;;;-1.02;100.00;99592.06;4972004;28;20262;-62
2022/04/02 06:50:15;;;;;;;4.80;3.87;;;;;;;-1.07;100.00;99598.88;4964869;28;20495;-60
2022/04/02 06:52:42;;;;;;;4.77;3.87;;;;;;;-1.09;100.00;99605.63;4980383;28;20676;-60
2022/04/02 06:55:08;;;;;;;8.83;4.20;;;;;;;-1.11;100.00;99604.81;4972344;28;20209;-61
2022/04/02 06:57:40;;;;;;;2.93;2.70;;;;;;;-1.11;100.00;99615.75;4972811;28;20466;-61
2022/04/02 07:00:07;;;;;;;7.37;4.07;;;;;;;-0.93;100.00;99611.28;4951261;28;20181;-60
2022/04/02 07:02:32;;;;;;;5.50;4.57;;;;;;;-0.84;100.00;99621.25;4955825;28;20475;-63
2022/04/02 07:04:57;;;;;;;5.60;3.83;;;;;;;-0.76;100.00;99614.38;4972482;28;20931;-61
2022/04/02 07:07:22;;;;;;;3.90;3.50;;;;;;;-0.74;100.00;99619.41;4973019;28;20176;-60
2022/04/02 07:09:48;;;;;;;4.70;3.90;;;;;;;-0.71;100.00;99624.41;4972840;28;20186;-61
2022/04/02 07:12:13;;;;;;;7.40;4.20;;;;;;;-0.83;100.00;99627.97;4962860;28;20237;-61
2022/04/02 07:14:38;;;;;;;5.17;4.53;;;;;;;-0.71;100.00;99629.44;4972274;28;20732;-62
2022/04/02 07:17:04;;;;;;;4.30;3.90;;;;;;;-0.78;100.00;99633.78;4977582;28;20920;-61
2022/04/02 07:19:30;;;;;;;6.13;4.30;;;;;;;-0.71;100.00;99629.44;4972210;28;20523;-61
2022/04/02 07:21:56;;;;;;;4.50;4.10;;;;;;;-0.65;100.00;99636.94;4975894;28;20243;-61
2022/04/02 07:24:21;;;;;;;5.50;4.20;;;;;;;-0.59;100.00;99629.25;4972199;28;20212;-61
2022/04/02 07:26:48;;;;;;;3.90;3.50;;;;;;;-0.76;100.00;99642.16;4971717;28;20516;-61
2022/04/02 07:29:15;;;;;;;4.13;3.73;;;;;;;-0.77;100.00;99644.72;4971012;28;20178;-61
2022/04/02 07:31:44;;;;;;;4.97;3.40;;;;;;;-0.82;100.00;99657.41;4945249;28;20486;-60
2022/04/02 07:34:09;;;;;;;3.93;3.53;;;;;;;-0.74;100.00;99644.69;4975866;28;20196;-62
2022/04/02 07:37:05;;;;;;;6.67;4.23;;;;;;;-0.71;100.00;99647.13;4975719;28;20424;-62
2022/04/02 07:39:43;;;;;;;6.83;4.60;;;;;;;-0.64;100.00;99646.19;4974345;28;20196;-60
2022/04/02 07:42:50;;;;;;;5.17;4.67;;;;;;;-0.73;100.00;99654.75;4966226;28;20642;-63
2022/04/02 07:45:20;;;;;;;5.70;4.87;;;;;;;-0.50;100.00;99661.97;4964334;28;20275;-63
2022/04/02 07:47:54;;;;;;;6.27;4.80;;;;;;;-0.31;100.00;99668.41;4974306;28;20460;-62
2022/04/02 07:50:24;;;;;;;5.13;4.47;;;;;;;-0.36;100.00;99658.34;4964915;28;20450;-66
2022/04/02 07:52:52;;;;;;;7.40;4.67;;;;;;;-0.39;100.00;99663.47;4989728;28;20498;-63
2022/04/02 07:55:19;;;;;;;6.87;5.20;;;;;;;-0.23;100.00;99659.81;4984250;28;20190;-61
2022/04/02 07:57:51;;;;;;;6.93;4.67;;;;;;;-0.15;100.00;99664.75;4959070;28;20542;-62
2022/04/02 08:00:19;;;;;;;7.60;5.13;;;;;;;-0.15;100.00;99671.50;4965663;28;20302;-63
2022/04/02 08:02:46;;;;;;;5.37;4.20;;;;;;;-0.08;100.00;99665.47;4971145;28;20526;-62
2022/04/02 08:05:14;;;;;;;8.63;4.80;;;;;;;-0.03;100.00;99677.16;4968213;28;20244;-61
2022/04/02 08:07:50;;;;;;;4.93;4.40;;;;;;;-0.09;100.00;99684.03;4962938;28;20423;-62
2022/04/02 08:10:17;;;;;;;4.17;3.77;;;;;;;-0.18;100.00;99685.84;4911515;28;20210;-63
2022/04/02 08:12:44;;;;;;;3.07;2.77;;;;;;;-0.37;100.00;99687.03;4975422;28;20265;-62
2022/04/02 08:15:16;;;;;;;5.77;3.37;;;;;;;-0.26;100.00;99682.66;4974710;28;20189;-62
2022/04/02 08:17:43;;;;;;;4.03;3.73;;;;;;;-0.20;100.00;99679.16;4973940;28;20225;-62
2022/04/02 08:20:10;;;;;;;3.97;3.47;;;;;;;-0.36;100.00;99699.66;4957177;28;20607;-61
2022/04/02 08:22:36;;;;;;;5.93;4.00;;;;;;;-0.10;100.00;99689.94;4984434;28;20238;-61
2022/04/02 08:25:04;;;;;;;4.83;3.47;;;;;;;0.03;100.00;99690.59;4973047;28;20186;-61
2022/04/02 08:27:40;;;;;;;3.57;3.27;;;;;;;0.00;100.00;99706.66;4944919;28;20568;-64
2022/04/02 08:30:07;;;;;;;4.37;3.87;;;;;;;0.05;100.00;99696.44;4902477;28;20539;-61
2022/04/02 08:33:01;;;;;;;7.27;4.40;;;;;;;0.33;100.00;99704.34;4992809;28;20265;-60
2022/04/02 08:35:32;;;;;;;6.93;3.70;;;;;;;0.26;99.76;99705.31;4992176;28;20639;-61
2022/04/02 08:38:09;;;;;;;4.87;3.83;;;;;;;0.55;100.00;99709.84;4993857;28;20190;-61
2022/04/02 08:41:17;;;;;;;5.30;3.23;;;;;;;0.35;99.94;99711.91;4986298;28;20287;-61
2022/04/02 08:44:06;;;;;;;4.77;3.37;;;;;;;0.08;99.30;99714.09;4992725;28;20530;-61
2022/04/02 08:46:59;;;;;;;4.73;3.83;;;;;;;0.18;100.00;99709.72;4992694;28;20184;-61
2022/04/02 08:49:36;;;;;;;3.47;3.10;;;;;;;0.36;99.72;99708.53;4994614;28;20167;-61
2022/04/02 08:52:20;;;;;;;4.27;3.87;;;;;;;0.30;99.54;99705.25;4971056;28;20222;-61
2022/04/02 08:55:10;;;;;;;3.87;3.27;;;;;;;0.46;98.59;99710.03;4972997;28;20277;-62
2022/04/02 08:57:53;;;;;;;4.03;3.63;;;;;;;0.50;96.45;99714.16;4975302;28;20176;-61
2022/04/02 09:00:23;;;;;;;5.43;3.23;;;;;;;0.53;95.72;99709.03;4966573;28;20654;-61
2022/04/02 09:03:26;;;;;;;4.20;2.73;;;;;;;0.56;92.31;99719.09;4986906;28;20567;-62
2022/04/02 09:06:28;;;;;;;5.83;3.53;;;;;;;0.63;89.68;99727.41;4974634;28;20318;-61
2022/04/02 09:09:21;;;;;;;4.07;2.90;;;;;;;0.91;91.14;99720.09;4973338;28;20183;-62
2022/04/02 09:12:05;;;;;;;3.87;3.50;;;;;;;1.16;87.99;99724.63;4984629;28;20298;-61
2022/04/02 09:14:31;;;;;;;5.00;3.30;;;;;;;1.24;85.01;99724.44;4977019;28;20332;-61
2022/04/02 09:17:03;;;;;;;6.50;3.80;;;;;;;1.27;83.05;99730.28;4992789;28;20567;-61
2022/04/02 09:20:00;;;;;;;3.30;3.00;;;;;;;1.14;75.02;99741.56;4982216;28;20194;-60
2022/04/02 09:22:35;;;;;;;3.67;3.13;;;;;;;1.23;76.25;99738.84;4984315;28;20231;-60
2022/04/02 09:25:23;;;;;;;6.10;4.17;;;;;;;1.45;76.63;99741.72;4991232;28;20206;-60
2022/04/02 09:28:09;;;;;;;4.73;4.10;;;;;;;1.54;71.78;99740.69;4971916;28;20198;-61
2022/04/02 09:31:13;;;;;;;3.70;3.10;;;;;;;1.61;70.98;99746.44;4981265;28;20707;-60
2022/04/02 09:34:35;;;;;;;4.40;3.07;;;;;;;1.39;68.15;99758.75;4969020;28;20199;-60
2022/04/02 09:37:08;;;;;;;5.10;3.10;;;;;;;1.19;68.84;99760.06;4974706;28;20203;-61
2022/04/02 09:39:58;;;;;;;8.03;3.40;;;;;;;1.27;70.95;99752.28;4974835;28;20195;-61
2022/04/02 09:42:44;;;;;;;4.43;3.73;;;;;;;1.73;71.01;99752.94;4980799;28;20242;-60
2022/04/02 09:45:18;;;;;;;7.50;3.40;;;;;;;2.33;74.97;99753.13;4990128;28;20307;-62
2022/04/02 09:48:05;;;;;;;6.73;3.43;;;;;;;2.69;70.38;99753.88;4985613;28;20184;-64
2022/04/02 09:50:31;;;;;;;6.93;3.58;;;;;;;3.08;65.25;99760.41;4979800;28;20505;-60
2022/04/02 09:52:56;;;;;;;5.43;3.20;;;;;;;3.05;64.91;99758.78;4982629;28;20208;-60
2022/04/02 09:55:52;;;;;;;6.20;3.30;;;;;;;2.46;63.11;99758.75;4980928;28;20200;-63
2022/04/02 09:58:20;;;;;;;4.37;3.90;;;;;;;2.12;65.54;99769.75;4990271;28;20237;-64
2022/04/02 10:01:03;;;;;;;3.57;2.87;;;;;;;2.30;66.31;99761.66;4979970;28;20614;-66
2022/04/02 10:03:51;;;;;;;3.00;2.80;;;;;;;2.54;65.33;99757.66;4970054;28;20695;-63
2022/04/02 10:06:34;;;;;;;5.33;2.93;;;;;;;2.54;64.94;99761.88;4986890;28;20187;-63
2022/04/02 10:09:10;;;;;;;3.57;3.00;;;;;;;2.37;64.55;99765.72;4973093;28;20186;-62
2022/04/02 10:11:42;;;;;;;3.73;3.43;;;;;;;2.60;62.84;99759.19;4964769;28;20218;-63
2022/04/02 10:14:08;;;;;;;5.40;2.90;;;;;;;2.53;63.79;99765.28;4970999;28;20187;-63
2022/04/02 10:16:35;;;;;;;4.40;3.90;;;;;;;2.47;61.80;99778.16;4971305;28;20208;-63
2022/04/02 10:19:01;;;;;;;4.30;2.90;;;;;;;2.49;62.73;99774.69;4979302;28;20215;-63
2022/04/02 10:21:32;;;;;;;3.50;2.90;;;;;;;2.34;62.79;99780.19;4964763;28;20270;-66
2022/04/02 10:24:21;;;;;;;3.93;3.40;;;;;;;1.85;62.88;99779.69;4971005;28;20177;-62
2022/04/02 10:26:53;;;;;;;4.37;3.20;;;;;;;1.97;64.73;99787.00;4970969;28;20272;-63
2022/04/02 10:29:45;;;;;;;6.83;3.80;;;;;;;2.02;63.36;99791.97;4972834;28;20188;-64
2022/04/02 10:32:34;;;;;;;4.93;3.70;;;;;;;2.35;62.84;99771.72;4962467;28;20281;-63
2022/04/02 10:35:11;;;;;;;3.70;3.33;;;;;;;2.20;60.97;99778.84;4972273;28;20177;-64
2022/04/02 10:37:57;;;;;;;4.27;3.30;;;;;;;2.47;63.85;99776.47;4971483;28;20184;-62
2022/04/02 10:40:25;;;;;;;3.80;3.50;;;;;;;2.46;61.25;99786.66;4965558;28;20228;-61
2022/04/02 10:42:59;;;;;;;6.53;4.03;;;;;;;2.22;63.26;99787.25;4971159;28;20184;-61
2022/04/02 10:45:28;;;;;;;6.43;3.73;;;;;;;2.22;66.38;99783.88;4972471;28;20206;-63
2022/04/02 10:48:10;;;;;;;5.20;3.50;;;;;;;2.25;63.30;99786.34;4971134;28;20251;-62
2022/04/02 10:50:38;;;;;;;4.23;3.20;;;;;;;2.44;63.67;99781.59;4963942;28;20278;-62
2022/04/02 10:53:04;;;;;;;4.87;4.07;;;;;;;2.63;63.70;99781.97;4970361;28;20212;-63
2022/04/02 10:55:30;;;;;;;4.20;3.47;;;;;;;2.69;62.34;99786.88;4972411;28;20191;-62
2022/04/02 10:57:59;;;;;;;5.70;3.90;;;;;;;2.92;62.41;99779.50;4970712;28;20282;-62
2022/04/02 11:00:27;;;;;;;9.47;3.80;;;;;;;3.04;61.65;99784.25;4950816;28;20245;-61
2022/04/02 11:03:02;;;;;;;4.43;3.80;;;;;;;3.36;62.70;99785.84;4957532;28;20322;-64
2022/04/02 11:05:29;;;;;;;4.60;3.90;;;;;;;3.63;60.72;99796.03;4973871;28;20188;-62
2022/04/02 11:08:05;;;;;;;6.23;3.93;;;;;;;3.27;60.49;99782.75;4973624;28;20247;-63
2022/04/02 11:10:34;;;;;;;4.53;3.30;;;;;;;3.00;58.97;99787.72;4968176;28;20261;-61
2022/04/02 11:13:00;;;;;;;3.00;2.70;;;;;;;3.14;59.05;99789.88;4986631;28;20283;-61
2022/04/02 11:15:31;;;;;;;4.47;3.93;;;;;;;3.27;58.52;99790.38;4968636;28;20226;-61
2022/04/02 11:17:59;;;;;;;3.67;3.37;;;;;;;2.90;57.00;99789.69;4969112;28;20185;-64
2022/04/02 11:20:26;;;;;;;4.57;4.00;;;;;;;3.02;57.66;99791.06;4968843;28;20243;-63
2022/04/02 11:22:51;;;;;;;4.03;3.53;;;;;;;2.82;57.37;99792.47;4971770;28;20284;-68
2022/04/02 11:25:23;;;;;;;4.23;3.53;;;;;;;3.00;56.97;99788.59;4975706;28;20263;-62
2022/04/02 11:27:50;;;;;;;6.03;3.77;;;;;;;3.23;56.57;99794.72;4975011;28;20200;-64
2022/04/02 11:30:17;;;;;;;4.90;2.73;;;;;;;3.02;56.81;99791.06;4947719;28;20176;-63
2022/04/02 11:32:45;;;;;;;6.63;3.90;;;;;;;2.83;56.74;99801.75;4989166;28;20210;-64
2022/04/02 11:35:31;;;;;;;3.00;2.80;;;;;;;2.85;56.07;99801.69;4974933;28;20182;-62
2022/04/02 11:38:09;;;;;;;5.30;4.33;;;;;;;3.14;55.86;99800.03;4982359;28;20577;-65
2022/04/02 11:40:41;;;;;;;5.80;3.73;;;;;;;3.27;56.42;99798.00;4968255;28;20249;-61
2022/04/02 11:43:07;;;;;;;4.00;3.60;;;;;;;3.61;57.93;99800.38;4986495;28;20666;-58